createdAt,value
2023-01-13T00:00:36.000Z,999.6
2023-01-13T00:01:44.000Z,999.6
2023-01-13T00:03:00.305Z,999.6
2023-01-13T00:04:16.000Z,999.7
2023-01-13T00:05:32.000Z,999.7
2023-01-13T00:06:30.890Z,999.7
2023-01-13T00:07:47.085Z,999.7
2023-01-13T00:09:21.000Z,999.7
2023-01-13T00:10:19.590Z,999.7
2023-01-13T00:11:35.984Z,999.7
2023-01-13T00:12:51.253Z,999.7
2023-01-13T00:14:25.436Z,999.8
2023-01-13T00:15:41.000Z,999.7
2023-01-13T00:18:14.022Z,999.7
2023-01-13T00:19:11.243Z,999.7
2023-01-13T00:20:45.000Z,999.8
2023-01-13T00:22:01.634Z,999.8
2023-01-13T00:23:17.000Z,999.8
2023-01-13T00:24:16.023Z,999.7
2023-01-13T00:25:50.000Z,999.7
2023-01-13T00:27:06.000Z,999.8
2023-01-13T00:28:22.000Z,999.7
2023-01-13T00:29:38.000Z,999.7
2023-01-13T00:30:55.000Z,999.7
2023-01-13T00:32:11.183Z,999.7
2023-01-13T00:33:27.000Z,999.6
2023-01-13T00:34:25.583Z,999.6
2023-01-13T00:35:58.000Z,999.6
2023-01-13T00:37:14.980Z,999.6
2023-01-13T00:38:31.183Z,999.7
2023-01-13T00:39:29.378Z,999.6
2023-01-13T00:41:03.000Z,999.6
2023-01-13T00:43:35.000Z,999.6
2023-01-13T00:44:52.158Z,999.7
2023-01-13T00:46:08.353Z,999.6
2023-01-13T00:47:06.548Z,999.6
2023-01-13T00:48:40.000Z,999.7
2023-01-13T00:49:56.930Z,999.8
2023-01-13T00:51:12.000Z,999.7
2023-01-13T00:52:10.355Z,999.6
2023-01-13T00:53:44.000Z,999.7
2023-01-13T00:55:00.745Z,999.7
2023-01-13T00:56:16.000Z,999.7
2023-01-13T00:57:15.135Z,999.7
2023-01-13T00:58:49.000Z,999.7
2023-01-13T01:00:05.000Z,999.7
2023-01-13T01:01:21.000Z,999.7
2023-01-13T01:02:37.919Z,999.7
2023-01-13T01:03:54.000Z,999.7
2023-01-13T01:04:52.304Z,999.7
2023-01-13T01:06:26.492Z,999.7
2023-01-13T01:08:58.000Z,999.7
2023-01-13T01:10:15.082Z,999.6
2023-01-13T01:11:31.273Z,999.7
2023-01-13T01:12:47.000Z,999.7
2023-01-13T01:14:03.669Z,999.6
2023-01-13T01:15:19.865Z,999.7
2023-01-13T01:16:36.000Z,999.7
2023-01-13T01:17:52.254Z,999.7
2023-01-13T01:19:08.000Z,999.7
2023-01-13T01:20:24.644Z,999.7
2023-01-13T01:21:40.839Z,999.7
2023-01-13T01:22:57.000Z,999.7
2023-01-13T01:23:55.344Z,999.7
2023-01-13T01:25:11.595Z,999.7
2023-01-13T01:26:44.857Z,999.6
2023-01-13T01:28:00.075Z,999.7
2023-01-13T01:29:16.271Z,999.7
2023-01-13T01:30:32.456Z,999.7
2023-01-13T01:31:30.660Z,999.7
2023-01-13T01:33:13.000Z,999.7
2023-01-13T01:35:37.000Z,999.7
2023-01-13T01:36:35.440Z,999.7
2023-01-13T01:38:17.000Z,999.7
2023-01-13T01:39:07.830Z,999.6
2023-01-13T01:40:42.025Z,999.6
2023-01-13T01:41:58.214Z,999.5
2023-01-13T01:43:14.000Z,999.6
2023-01-13T01:44:12.610Z,999.6
2023-01-13T01:45:46.805Z,999.5
2023-01-13T01:48:19.000Z,999.5
2023-01-13T01:49:35.390Z,999.6
2023-01-13T01:50:51.000Z,999.5
2023-01-13T01:53:23.983Z,999.5
2023-01-13T01:54:39.000Z,999.5
2023-01-13T01:55:55.379Z,999.4
2023-01-13T01:56:52.602Z,999.4
2023-01-13T01:58:25.814Z,999.5
2023-01-13T02:00:58.199Z,999.5
2023-01-13T02:02:14.398Z,999.5
2023-01-13T02:03:30.593Z,999.4
2023-01-13T02:04:46.792Z,999.5
2023-01-13T02:06:03.000Z,999.5
2023-01-13T02:07:19.167Z,999.5
2023-01-13T02:08:35.362Z,999.4
2023-01-13T02:09:33.568Z,999.5
2023-01-13T02:11:07.765Z,999.4
2023-01-13T02:12:23.958Z,999.4
2023-01-13T02:13:40.153Z,999.4
2023-01-13T02:14:38.348Z,999.3
2023-01-13T02:16:12.532Z,999.4
2023-01-13T02:17:28.725Z,999.4
2023-01-13T02:18:44.929Z,999.4
2023-01-13T02:19:43.127Z,999.3
2023-01-13T02:21:17.323Z,999.3
2023-01-13T02:22:33.517Z,999.4
2023-01-13T02:23:49.000Z,999.3
2023-01-13T02:25:05.907Z,999.3
2023-01-13T02:26:22.103Z,999.3
2023-01-13T02:27:20.297Z,999.3
2023-01-13T02:28:54.493Z,999.3
2023-01-13T02:30:10.680Z,999.3
2023-01-13T02:31:26.883Z,999.3
2023-01-13T02:32:42.103Z,999.3
2023-01-13T02:33:58.299Z,999.3
2023-01-13T02:35:14.000Z,999.2
2023-01-13T02:36:30.689Z,999.3
2023-01-13T02:37:46.883Z,999.2
2023-01-13T02:39:03.000Z,999.3
2023-01-13T02:40:27.000Z,999.2
2023-01-13T02:41:35.466Z,999.2
2023-01-13T02:42:51.663Z,999.2
2023-01-13T02:44:07.858Z,999.3
2023-01-13T02:45:24.000Z,999.3
2023-01-13T02:46:40.244Z,999.3
2023-01-13T02:47:56.441Z,999.3
2023-01-13T02:49:12.638Z,999.1
2023-01-13T02:50:28.833Z,999.2
2023-01-13T02:51:45.028Z,999.2
2023-01-13T02:53:01.223Z,999.2
2023-01-13T02:54:17.416Z,999.2
2023-01-13T02:55:33.617Z,999.2
2023-01-13T02:56:49.808Z,999.2
2023-01-13T02:58:06.000Z,999.2
2023-01-13T02:59:22.000Z,999.1
2023-01-13T03:00:20.392Z,999.1
2023-01-13T03:01:54.586Z,999.1
2023-01-13T03:04:26.015Z,999.1
2023-01-13T03:05:24.209Z,999.1
2023-01-13T03:06:58.000Z,999.2
2023-01-13T03:08:14.000Z,999.1
2023-01-13T03:09:30.792Z,999.1
2023-01-13T03:10:46.998Z,999.1
2023-01-13T03:12:03.185Z,999.1
2023-01-13T03:13:19.379Z,999
2023-01-13T03:14:35.000Z,999
2023-01-13T03:15:51.770Z,998.9
2023-01-13T03:17:07.963Z,998.9
2023-01-13T03:18:24.000Z,998.9
2023-01-13T03:19:48.000Z,999
2023-01-13T03:20:56.550Z,998.9
2023-01-13T03:22:12.745Z,998.9
2023-01-13T03:23:28.000Z,999
2023-01-13T03:24:45.135Z,998.9
2023-01-13T03:26:01.329Z,998.9
2023-01-13T03:27:17.525Z,998.9
2023-01-13T03:29:49.915Z,999
2023-01-13T03:31:06.000Z,999.1
2023-01-13T03:32:22.307Z,999
2023-01-13T03:33:38.500Z,999
2023-01-13T03:34:54.000Z,999
2023-01-13T03:36:11.000Z,999
2023-01-13T03:37:27.258Z,999
2023-01-13T03:38:43.000Z,998.9
2023-01-13T03:39:59.000Z,999
2023-01-13T03:41:16.014Z,999
2023-01-13T03:42:32.000Z,999
2023-01-13T03:43:48.516Z,999
2023-01-13T03:45:04.000Z,999
2023-01-13T03:46:21.000Z,999
2023-01-13T03:47:45.000Z,999
2023-01-13T03:48:53.532Z,999
2023-01-13T03:50:09.000Z,999
2023-01-13T03:51:26.000Z,998.9
2023-01-13T03:52:42.000Z,999
2023-01-13T03:53:58.000Z,999
2023-01-13T03:55:14.208Z,998.9
2023-01-13T03:56:30.000Z,999
2023-01-13T03:57:46.598Z,999
2023-01-13T03:59:02.794Z,999
2023-01-13T04:00:18.000Z,999
2023-01-13T04:01:35.185Z,999
2023-01-13T04:04:07.575Z,999
2023-01-13T04:05:23.770Z,999
2023-01-13T04:06:48.000Z,999
2023-01-13T04:07:56.160Z,998.9
2023-01-13T04:09:12.000Z,998.9
2023-01-13T04:10:28.000Z,998.9
2023-01-13T04:11:44.742Z,998.8
2023-01-13T04:12:42.941Z,998.8
2023-01-13T04:14:17.000Z,998.9
2023-01-13T04:16:49.528Z,998.8
2023-01-13T04:18:05.722Z,998.9
2023-01-13T04:19:21.909Z,998.9
2023-01-13T04:20:38.000Z,998.9
2023-01-13T04:21:54.310Z,998.8
2023-01-13T04:23:10.000Z,998.9
2023-01-13T04:24:26.000Z,998.9
2023-01-13T04:25:42.895Z,998.9
2023-01-13T04:26:59.150Z,998.9
2023-01-13T04:28:15.000Z,999
2023-01-13T04:29:31.000Z,998.9
2023-01-13T04:30:56.000Z,999
2023-01-13T04:31:46.156Z,999.1
2023-01-13T04:33:20.000Z,999
2023-01-13T04:34:36.000Z,998.9
2023-01-13T04:36:01.000Z,999
2023-01-13T04:37:09.163Z,999
2023-01-13T04:38:24.433Z,998.9
2023-01-13T04:39:40.627Z,998.9
2023-01-13T04:40:56.000Z,998.9
2023-01-13T04:41:55.019Z,999
2023-01-13T04:43:29.000Z,999
2023-01-13T04:44:45.410Z,999
2023-01-13T04:46:01.607Z,998.9
2023-01-13T04:46:59.801Z,999
2023-01-13T04:48:34.000Z,999
2023-01-13T04:49:50.000Z,998.9
2023-01-13T04:51:06.000Z,999
2023-01-13T04:52:22.000Z,998.9
2023-01-13T04:53:38.000Z,999.1
2023-01-13T04:54:54.973Z,999
2023-01-13T04:56:11.168Z,999
2023-01-13T04:57:27.000Z,999.1
2023-01-13T04:58:51.000Z,999.1
2023-01-13T04:59:59.753Z,999.1
2023-01-13T05:01:15.949Z,999.2
2023-01-13T05:02:32.000Z,999.1
2023-01-13T05:03:48.000Z,999.3
2023-01-13T05:04:46.533Z,999.1
2023-01-13T05:06:20.730Z,999.2
2023-01-13T05:07:18.924Z,999.2
2023-01-13T05:08:53.000Z,999.2
2023-01-13T05:10:09.373Z,999.2
2023-01-13T05:11:25.626Z,999.2
2023-01-13T05:12:41.000Z,999.2
2023-01-13T05:13:58.129Z,999.2
2023-01-13T05:15:14.000Z,999.2
2023-01-13T05:16:12.633Z,999.3
2023-01-13T05:17:46.879Z,999.4
2023-01-13T05:18:44.152Z,999.4
2023-01-13T05:20:18.000Z,999.3
2023-01-13T05:21:34.000Z,999.4
2023-01-13T05:22:50.738Z,999.4
2023-01-13T05:24:06.000Z,999.3
2023-01-13T05:25:23.129Z,999.3
2023-01-13T05:26:39.000Z,999.4
2023-01-13T05:27:55.513Z,999.4
2023-01-13T05:29:11.716Z,999.4
2023-01-13T05:30:27.910Z,999.4
2023-01-13T05:31:44.000Z,999.3
2023-01-13T05:33:00.000Z,999.4
2023-01-13T05:34:16.000Z,999.3
2023-01-13T05:35:32.690Z,999.3
2023-01-13T05:36:48.000Z,999.4
2023-01-13T05:38:05.000Z,999.4
2023-01-13T05:39:21.000Z,999.5
2023-01-13T05:40:37.476Z,999.4
2023-01-13T05:41:53.667Z,999.4
2023-01-13T05:42:51.862Z,999.4
2023-01-13T05:44:26.058Z,999.3
2023-01-13T05:45:50.000Z,999.4
2023-01-13T05:46:58.457Z,999.4
2023-01-13T05:47:56.643Z,999.3
2023-01-13T05:49:30.839Z,999.4
2023-01-13T05:50:47.000Z,999.5
2023-01-13T05:52:11.000Z,999.5
2023-01-13T05:53:01.596Z,999.6
2023-01-13T05:54:44.000Z,999.6
2023-01-13T05:55:52.000Z,999.7
2023-01-13T05:56:50.351Z,999.7
2023-01-13T05:58:23.000Z,999.8
2023-01-13T05:59:39.000Z,999.8
2023-01-13T06:00:56.000Z,999.9
2023-01-13T06:02:12.000Z,999.8
2023-01-13T06:03:28.000Z,999.8
2023-01-13T06:04:44.000Z,999.8
2023-01-13T06:06:00.000Z,999.7
2023-01-13T06:07:16.000Z,999.7
2023-01-13T06:08:33.000Z,999.7
2023-01-13T06:09:49.000Z,999.7
2023-01-13T06:10:47.570Z,999.7
2023-01-13T06:12:21.772Z,999.6
2023-01-13T06:13:19.960Z,999.4
2023-01-13T06:14:54.000Z,999.5
2023-01-13T06:15:52.350Z,999.5
2023-01-13T06:17:26.000Z,999.6
2023-01-13T06:18:42.740Z,999.6
2023-01-13T06:19:58.000Z,999.7
2023-01-13T06:20:57.131Z,999.7
2023-01-13T06:22:13.326Z,999.7
2023-01-13T06:23:29.521Z,999.8
2023-01-13T06:25:03.718Z,999.8
2023-01-13T06:26:01.913Z,999.7
2023-01-13T06:27:36.000Z,999.8
2023-01-13T06:28:34.303Z,999.7
2023-01-13T06:30:08.000Z,999.7
2023-01-13T06:31:24.807Z,999.7
2023-01-13T06:32:41.000Z,999.7
2023-01-13T06:33:57.000Z,999.7
2023-01-13T06:35:13.557Z,999.7
2023-01-13T06:36:29.000Z,999.7
2023-01-13T06:37:28.068Z,999.7
2023-01-13T06:38:44.319Z,999.6
2023-01-13T06:40:18.000Z,999.6
2023-01-13T06:41:33.839Z,999.7
2023-01-13T06:42:32.033Z,999.7
2023-01-13T06:44:06.000Z,999.7
2023-01-13T06:45:04.545Z,999.6
2023-01-13T06:46:38.741Z,999.6
2023-01-13T06:47:54.000Z,999.4
2023-01-13T06:49:11.000Z,999.4
2023-01-13T06:50:27.327Z,999.4
2023-01-13T06:51:43.000Z,999.3
2023-01-13T06:52:59.000Z,999.1
2023-01-13T06:54:15.912Z,999.1
2023-01-13T06:55:14.107Z,999.2
2023-01-13T06:56:48.000Z,999.3
2023-01-13T06:57:46.497Z,999.4
2023-01-13T06:59:20.692Z,999.5
2023-01-13T07:00:36.887Z,999.5
2023-01-13T07:01:53.000Z,999.6
2023-01-13T07:03:09.277Z,999.6
2023-01-13T07:04:25.000Z,999.4
2023-01-13T07:05:23.667Z,999.5
2023-01-13T07:06:57.000Z,999.5
2023-01-13T07:08:14.000Z,999.5
2023-01-13T07:09:12.253Z,999.5
2023-01-13T07:10:28.447Z,999.5
2023-01-13T07:12:02.000Z,999.5
2023-01-13T07:13:18.000Z,999.5
2023-01-13T07:14:35.000Z,999.5
2023-01-13T07:15:33.228Z,999.5
2023-01-13T07:17:15.000Z,999.5
2023-01-13T07:18:05.617Z,999.5
2023-01-13T07:19:39.000Z,999.4
2023-01-13T07:20:38.007Z,999.4
2023-01-13T07:22:12.000Z,999.3
2023-01-13T07:23:09.426Z,999.2
2023-01-13T07:24:43.000Z,999.2
2023-01-13T07:25:59.000Z,999.3
2023-01-13T07:27:16.000Z,999.1
2023-01-13T07:28:32.000Z,999.1
2023-01-13T07:29:48.000Z,999.2
2023-01-13T07:31:03.000Z,999.4
2023-01-13T07:32:28.000Z,999.5
2023-01-13T07:33:35.994Z,999.5
2023-01-13T07:34:52.000Z,999.5
2023-01-13T07:35:50.393Z,999.4
2023-01-13T07:37:24.593Z,999.3
2023-01-13T07:38:40.000Z,999.4
2023-01-13T07:39:56.000Z,999.5
2023-01-13T07:40:55.174Z,999.6
2023-01-13T07:42:29.000Z,999.5
2023-01-13T07:43:45.565Z,999.4
2023-01-13T07:45:10.000Z,999.5
2023-01-13T07:46:17.000Z,999.5
2023-01-13T07:47:34.000Z,999.5
2023-01-13T07:48:50.000Z,999.6
2023-01-13T07:50:06.542Z,999.6
2023-01-13T07:51:22.000Z,999.7
2023-01-13T07:52:38.000Z,999.7
2023-01-13T07:53:55.129Z,999.7
2023-01-13T07:55:10.000Z,999.8
2023-01-13T07:56:26.000Z,999.7
2023-01-13T07:57:42.740Z,999.6
2023-01-13T07:58:40.934Z,999.6
2023-01-13T08:00:23.000Z,999.7
2023-01-13T08:01:30.000Z,999.7
2023-01-13T08:02:46.549Z,999.6
2023-01-13T08:04:02.000Z,999.7
2023-01-13T08:05:18.000Z,999.7
2023-01-13T08:06:17.134Z,999.6
2023-01-13T08:07:51.330Z,999.8
2023-01-13T08:08:49.525Z,999.9
2023-01-13T08:10:23.000Z,999.9
2023-01-13T08:11:21.915Z,1000
2023-01-13T08:12:56.000Z,1000
2023-01-13T08:14:12.000Z,1000
2023-01-13T08:15:10.501Z,1000
2023-01-13T08:16:44.000Z,1000
2023-01-13T08:18:00.891Z,1000
2023-01-13T08:19:17.000Z,1000
2023-01-13T08:20:33.000Z,1000.1
2023-01-13T08:21:49.000Z,1000.1
2023-01-13T08:23:05.673Z,1000.1
2023-01-13T08:24:21.867Z,1000.1
2023-01-13T08:25:38.000Z,1000.1
2023-01-13T08:26:36.408Z,1000.3
2023-01-13T08:28:10.000Z,1000.2
2023-01-13T08:29:26.000Z,1000.2
2023-01-13T08:30:43.000Z,1000.2
2023-01-13T08:31:59.194Z,1000.1
2023-01-13T08:33:15.384Z,1000.1
2023-01-13T08:34:13.579Z,1000
2023-01-13T08:35:47.000Z,1000
2023-01-13T08:37:03.000Z,1000
2023-01-13T08:38:20.000Z,1000
2023-01-13T08:39:18.360Z,1000.1
2023-01-13T08:40:52.000Z,1000
2023-01-13T08:42:08.000Z,1000
2023-01-13T08:43:24.945Z,1000
2023-01-13T08:44:41.136Z,1000.1
2023-01-13T08:45:57.457Z,1000.1
2023-01-13T08:46:55.650Z,1000
2023-01-13T08:48:29.000Z,999.8
2023-01-13T08:49:54.000Z,999.9
2023-01-13T08:51:02.000Z,1000.1
2023-01-13T08:52:00.422Z,1000.3
2023-01-13T08:53:34.000Z,1000.3
2023-01-13T08:54:49.000Z,1000.4
2023-01-13T08:56:06.000Z,1000.4
2023-01-13T08:57:04.222Z,1000.4
2023-01-13T08:58:38.416Z,1000.4
2023-01-13T08:59:36.609Z,1000.4
2023-01-13T09:01:10.000Z,1000.3
2023-01-13T09:02:08.995Z,1000.3
2023-01-13T09:03:43.188Z,1000.4
2023-01-13T09:04:59.000Z,1000.4
2023-01-13T09:06:15.000Z,1000.3
2023-01-13T09:07:31.000Z,1000.1
2023-01-13T09:08:56.000Z,999.9
2023-01-13T09:09:46.154Z,999.9
2023-01-13T09:11:20.346Z,999.9
2023-01-13T09:12:18.540Z,999.7
2023-01-13T09:13:52.000Z,999.5
2023-01-13T09:15:08.000Z,999.1
2023-01-13T09:16:25.000Z,998.7
2023-01-13T09:17:41.000Z,998.8
2023-01-13T09:18:56.518Z,999.2
2023-01-13T09:20:12.000Z,999.7
2023-01-13T09:21:28.904Z,1000.1
2023-01-13T09:22:45.000Z,1000.3
2023-01-13T09:24:01.297Z,1000.2
2023-01-13T09:24:59.624Z,1000.2
2023-01-13T09:26:42.000Z,1000.2
2023-01-13T09:27:50.000Z,1000.3
2023-01-13T09:29:06.000Z,1000.3
2023-01-13T09:30:22.396Z,1000.3
2023-01-13T09:31:38.000Z,1000.2
2023-01-13T09:32:54.000Z,1000.2
2023-01-13T09:34:10.000Z,1000.1
2023-01-13T09:35:09.170Z,1000.2
2023-01-13T09:36:43.362Z,1000.1
2023-01-13T09:37:41.556Z,1000.1
2023-01-13T09:38:57.748Z,1000.1
2023-01-13T09:40:31.949Z,1000.1
2023-01-13T09:41:48.000Z,1000
2023-01-13T09:43:04.329Z,1000
2023-01-13T09:44:20.000Z,1000
2023-01-13T09:45:36.714Z,999.9
2023-01-13T09:46:52.000Z,999.9
2023-01-13T09:48:09.000Z,999.9
2023-01-13T09:49:33.000Z,999.9
2023-01-13T09:50:22.514Z,999.9
2023-01-13T09:51:56.707Z,999.9
2023-01-13T09:53:12.896Z,1000
2023-01-13T09:54:29.241Z,1000.1
2023-01-13T09:55:27.434Z,1000.2
2023-01-13T09:57:01.000Z,1000.1
2023-01-13T09:58:17.819Z,1000.2
2023-01-13T09:59:34.000Z,1000.1
2023-01-13T10:00:32.206Z,1000.2
2023-01-13T10:02:06.398Z,1000.2
2023-01-13T10:03:04.591Z,1000.1
2023-01-13T10:04:38.785Z,1000.1
2023-01-13T10:05:54.000Z,1000.2
2023-01-13T10:07:11.000Z,1000.2
2023-01-13T10:08:09.364Z,1000.2
2023-01-13T10:09:43.000Z,1000.2
2023-01-13T10:10:59.000Z,1000.2
2023-01-13T10:12:15.943Z,1000.1
2023-01-13T10:13:32.137Z,1000.2
2023-01-13T10:14:48.000Z,1000.2
2023-01-13T10:16:04.523Z,1000.4
2023-01-13T10:17:20.716Z,1000.3
2023-01-13T10:18:18.909Z,1000.4
2023-01-13T10:19:53.000Z,1000.3
2023-01-13T10:20:51.416Z,1000.3
2023-01-13T10:22:25.000Z,1000.4
2023-01-13T10:23:41.802Z,1000.3
2023-01-13T10:24:58.000Z,1000.3
2023-01-13T10:26:14.000Z,1000.3
2023-01-13T10:27:30.000Z,1000.2
2023-01-13T10:28:28.574Z,1000.3
2023-01-13T10:30:02.000Z,1000.2
2023-01-13T10:31:18.000Z,1000.2
2023-01-13T10:32:43.000Z,1000.2
2023-01-13T10:33:33.346Z,1000.2
2023-01-13T10:35:07.000Z,1000.2
2023-01-13T10:37:39.000Z,1000.3
2023-01-13T10:38:56.118Z,1000.2
2023-01-13T10:40:12.311Z,1000.3
2023-01-13T10:41:28.000Z,1000.3
2023-01-13T10:42:44.000Z,1000.2
2023-01-13T10:44:00.885Z,1000.2
2023-01-13T10:45:17.082Z,1000.2
2023-01-13T10:46:15.275Z,1000.1
2023-01-13T10:47:57.000Z,1000.2
2023-01-13T10:50:20.000Z,1000.3
2023-01-13T10:51:37.072Z,1000.2
2023-01-13T10:52:52.000Z,1000.3
2023-01-13T10:53:50.488Z,1000.3
2023-01-13T10:55:24.000Z,1000.2
2023-01-13T10:56:40.000Z,1000.2
2023-01-13T10:57:57.000Z,1000.3
2023-01-13T10:59:12.266Z,1000.2
2023-01-13T11:00:28.467Z,1000.2
2023-01-13T11:01:44.660Z,1000.1
2023-01-13T11:03:00.000Z,1000.1
2023-01-13T11:03:59.046Z,1000.2
2023-01-13T11:05:33.239Z,1000.2
2023-01-13T11:06:31.432Z,1000.2
2023-01-13T11:08:05.000Z,1000.1
2023-01-13T11:09:21.000Z,1000.1
2023-01-13T11:10:38.012Z,1000.2
2023-01-13T11:11:36.205Z,1000.3
2023-01-13T11:13:10.000Z,1000.2
2023-01-13T11:14:26.000Z,1000.3
2023-01-13T11:15:42.000Z,1000.2
2023-01-13T11:16:58.977Z,1000.2
2023-01-13T11:17:57.170Z,1000.1
2023-01-13T11:19:13.363Z,1000
2023-01-13T11:20:47.000Z,1000.2
2023-01-13T11:21:45.750Z,1000.2
2023-01-13T11:23:19.000Z,1000.2
2023-01-13T11:24:36.000Z,1000.2
2023-01-13T11:26:00.000Z,1000.3
2023-01-13T11:27:08.522Z,1000.3
2023-01-13T11:28:24.000Z,1000.2
2023-01-13T11:29:22.908Z,1000.3
2023-01-13T11:30:57.102Z,1000.2
2023-01-13T11:32:13.296Z,1000.3
2023-01-13T11:33:29.000Z,1000.3
2023-01-13T11:34:27.681Z,1000.3
2023-01-13T11:36:01.000Z,1000.3
2023-01-13T11:37:00.067Z,1000.2
2023-01-13T11:38:34.000Z,1000.2
2023-01-13T11:39:50.000Z,1000.2
2023-01-13T11:41:06.000Z,1000.2
2023-01-13T11:42:04.840Z,1000.2
2023-01-13T11:43:39.000Z,1000.2
2023-01-13T11:44:55.000Z,1000.2
2023-01-13T11:46:11.000Z,1000.3
2023-01-13T11:47:09.759Z,1000.3
2023-01-13T11:48:44.074Z,1000.2
2023-01-13T11:49:42.266Z,1000.2
2023-01-13T11:51:16.000Z,1000.1
2023-01-13T11:52:32.000Z,1000.1
2023-01-13T11:53:48.000Z,1000.2
2023-01-13T11:55:05.039Z,1000.2
2023-01-13T11:56:03.232Z,1000.2
2023-01-13T11:57:19.425Z,1000.2
2023-01-13T11:58:53.618Z,1000.3
2023-01-13T11:59:51.811Z,1000.3
2023-01-13T12:01:26.000Z,1000.3
2023-01-13T12:02:24.197Z,1000.2
2023-01-13T12:03:58.000Z,1000.3
2023-01-13T12:05:14.000Z,1000.2
2023-01-13T12:06:30.000Z,1000.2
2023-01-13T12:07:45.989Z,1000.3
2023-01-13T12:09:02.000Z,1000.3
2023-01-13T12:10:18.000Z,1000.3
2023-01-13T12:11:34.000Z,1000.2
2023-01-13T12:12:32.755Z,1000.5
2023-01-13T12:14:07.000Z,1000.3
2023-01-13T12:15:23.288Z,1000.2
2023-01-13T12:16:39.482Z,1000.2
2023-01-13T12:17:55.000Z,1000.3
2023-01-13T12:19:11.000Z,1000.2
2023-01-13T12:20:10.061Z,1000.2
2023-01-13T12:21:44.000Z,1000.2
2023-01-13T12:23:00.000Z,1000.1
2023-01-13T12:24:16.000Z,1000.2
2023-01-13T12:25:14.953Z,1000.2
2023-01-13T12:26:49.000Z,1000.2
2023-01-13T12:27:47.339Z,1000.3
2023-01-13T12:29:21.532Z,1000.1
2023-01-13T12:30:37.000Z,1000.2
2023-01-13T12:31:53.000Z,1000.3
2023-01-13T12:32:52.111Z,1000.4
2023-01-13T12:34:26.303Z,1000.3
2023-01-13T12:35:24.497Z,1000.3
2023-01-13T12:37:07.000Z,1000.2
2023-01-13T12:37:56.882Z,1000.3
2023-01-13T12:39:31.000Z,1000.3
2023-01-13T12:40:29.268Z,1000.4
2023-01-13T12:42:02.000Z,1000.3
2023-01-13T12:43:18.000Z,1000.3
2023-01-13T12:44:34.000Z,1000.3
2023-01-13T12:45:33.063Z,1000.4
2023-01-13T12:47:07.256Z,1000.3
2023-01-13T12:48:23.444Z,1000.4
2023-01-13T12:49:39.643Z,1000.3
2023-01-13T12:50:55.000Z,1000.4
2023-01-13T12:52:12.000Z,1000.4
2023-01-13T12:53:28.000Z,1000.4
2023-01-13T12:54:44.000Z,1000.5
2023-01-13T12:56:00.607Z,1000.5
2023-01-13T12:57:16.000Z,1000.6
2023-01-13T12:58:32.995Z,1000.4
2023-01-13T12:59:31.187Z,1000.5
2023-01-13T13:00:47.380Z,1000.4
2023-01-13T13:02:21.000Z,1000.5
2023-01-13T13:03:19.766Z,1000.5
2023-01-13T13:05:02.000Z,1000.4
2023-01-13T13:05:51.164Z,1000.4
2023-01-13T13:07:25.000Z,1000.4
2023-01-13T13:08:41.551Z,1000.4
2023-01-13T13:09:57.000Z,1000.4
2023-01-13T13:10:55.936Z,1000.5
2023-01-13T13:12:30.000Z,1000.4
2023-01-13T13:13:28.322Z,1000.5
2023-01-13T13:14:44.515Z,1000.5
2023-01-13T13:16:00.708Z,1000.5
2023-01-13T13:17:34.901Z,1000.5
2023-01-13T13:18:33.094Z,1000.5
2023-01-13T13:20:07.287Z,1000.5
2023-01-13T13:21:23.480Z,1000.5
2023-01-13T13:22:39.673Z,1000.6
2023-01-13T13:23:55.000Z,1000.5
2023-01-13T13:25:12.000Z,1000.6
2023-01-13T13:26:10.252Z,1000.5
2023-01-13T13:27:44.000Z,1000.5
2023-01-13T13:28:42.638Z,1000.6
2023-01-13T13:30:25.000Z,1000.7
2023-01-13T13:31:33.020Z,1000.6
2023-01-13T13:32:49.000Z,1000.6
2023-01-13T13:34:05.000Z,1000.7
2023-01-13T13:35:30.000Z,1000.6
2023-01-13T13:36:45.000Z,1000.7
2023-01-13T13:37:35.001Z,1000.7
2023-01-13T13:38:51.194Z,1000.6
2023-01-13T13:40:25.000Z,1000.7
2023-01-13T13:41:23.580Z,1000.7
2023-01-13T13:42:57.000Z,1000.7
2023-01-13T13:43:55.967Z,1000.7
2023-01-13T13:45:38.000Z,1000.7
2023-01-13T13:46:46.352Z,1000.7
2023-01-13T13:48:02.000Z,1000.8
2023-01-13T13:49:18.737Z,1000.8
2023-01-13T13:50:34.931Z,1000.8
2023-01-13T13:51:51.000Z,1000.8
2023-01-13T13:53:15.000Z,1000.8
2023-01-13T13:54:05.511Z,1000.8
2023-01-13T13:55:39.000Z,1000.8
2023-01-13T13:56:37.897Z,1000.8
2023-01-13T13:58:12.000Z,1000.8
2023-01-13T13:59:28.282Z,1000.8
2023-01-13T14:00:44.000Z,1000.8
2023-01-13T14:01:42.668Z,1000.8
2023-01-13T14:03:16.000Z,1000.7
2023-01-13T14:04:15.055Z,1000.7
2023-01-13T14:05:49.248Z,1000.9
2023-01-13T14:06:46.454Z,1000.8
2023-01-13T14:08:20.647Z,1000.8
2023-01-13T14:09:18.840Z,1000.8
2023-01-13T14:10:53.000Z,1000.9
2023-01-13T14:13:07.419Z,1000.9
2023-01-13T14:14:23.612Z,1000.8
2023-01-13T14:16:06.000Z,1000.8
2023-01-13T14:16:55.998Z,1000.9
2023-01-13T14:18:30.000Z,1000.9
2023-01-13T14:19:28.384Z,1000.8
2023-01-13T14:20:44.576Z,1000.9
2023-01-13T14:22:27.000Z,1000.8
2023-01-13T14:23:43.000Z,1000.9
2023-01-13T14:26:07.348Z,1001
2023-01-13T14:27:23.000Z,1000.9
2023-01-13T14:28:48.000Z,1000.9
2023-01-13T14:29:55.000Z,1000.9
2023-01-13T14:31:12.000Z,1001
2023-01-13T14:32:28.319Z,1000.9
2023-01-13T14:33:44.000Z,1001
2023-01-13T14:35:00.699Z,1000.9
2023-01-13T14:36:16.000Z,1000.9
2023-01-13T14:37:33.000Z,1000.9
2023-01-13T14:38:49.000Z,1001
2023-01-13T14:40:05.000Z,1001
2023-01-13T14:41:21.000Z,1001
2023-01-13T14:42:37.000Z,1000.9
2023-01-13T14:43:54.000Z,1000.9
2023-01-13T14:45:09.253Z,1000.9
2023-01-13T14:46:33.000Z,1000.8
2023-01-13T14:47:41.000Z,1000.7
2023-01-13T14:48:57.000Z,1000.8
2023-01-13T14:50:14.028Z,1000.9
2023-01-13T14:51:30.000Z,1000.9
2023-01-13T14:52:46.000Z,1000.9
2023-01-13T14:53:44.607Z,1000.9
2023-01-13T14:55:00.800Z,1000.9
2023-01-13T14:56:34.000Z,1001
2023-01-13T14:57:33.187Z,1000.9
2023-01-13T14:59:07.000Z,1000.9
2023-01-13T15:00:05.573Z,1001
2023-01-13T15:01:21.766Z,1001
2023-01-13T15:02:54.000Z,1000.9
2023-01-13T15:04:11.000Z,1000.9
2023-01-13T15:05:27.365Z,1001
2023-01-13T15:06:43.560Z,1001
2023-01-13T15:07:41.744Z,1001
2023-01-13T15:09:24.000Z,1001
2023-01-13T15:10:14.130Z,1000.9
2023-01-13T15:11:48.000Z,1001
2023-01-13T15:13:12.000Z,1001
2023-01-13T15:14:02.708Z,1001
2023-01-13T15:15:36.902Z,1001.1
2023-01-13T15:16:53.000Z,1001
2023-01-13T15:17:51.287Z,1001.2
2023-01-13T15:19:25.480Z,1001.1
2023-01-13T15:20:23.673Z,1001.1
2023-01-13T15:21:57.866Z,1001.1
2023-01-13T15:22:56.059Z,1001
2023-01-13T15:24:30.000Z,1001
2023-01-13T15:25:46.000Z,1001.2
2023-01-13T15:27:02.000Z,1001.2
2023-01-13T15:28:18.000Z,1001.1
2023-01-13T15:29:35.000Z,1001
2023-01-13T15:30:51.221Z,1001.2
2023-01-13T15:32:07.000Z,1001.2
2023-01-13T15:33:04.616Z,1001.2
2023-01-13T15:34:38.000Z,1001.2
2023-01-13T15:35:55.002Z,1001.3
2023-01-13T15:37:11.192Z,1001.3
2023-01-13T15:38:09.388Z,1001.2
2023-01-13T15:39:43.000Z,1001.3
2023-01-13T15:40:59.000Z,1001.3
2023-01-13T15:42:15.000Z,1001.3
2023-01-13T15:43:14.161Z,1001.3
2023-01-13T15:44:48.000Z,1001.3
2023-01-13T15:46:04.544Z,1001.2
2023-01-13T15:47:20.740Z,1001.2
2023-01-13T15:48:18.933Z,1001.3
2023-01-13T15:49:53.000Z,1001.3
2023-01-13T15:50:51.320Z,1001.3
2023-01-13T15:52:33.000Z,1001.2
2023-01-13T15:53:41.000Z,1001.1
2023-01-13T15:54:57.899Z,1001.3
2023-01-13T15:55:56.092Z,1001.3
2023-01-13T15:57:30.285Z,1001.2
2023-01-13T15:58:46.478Z,1001.3
2023-01-13T16:00:11.000Z,1001.4
2023-01-13T16:01:00.865Z,1001
2023-01-13T16:02:35.000Z,1001.2
2023-01-13T16:03:33.251Z,1001.3
2023-01-13T16:05:07.000Z,1001.2
2023-01-13T16:06:23.000Z,1001.2
2023-01-13T16:07:39.000Z,1001.3
2023-01-13T16:08:55.046Z,1001.4
2023-01-13T16:10:11.000Z,1001.3
2023-01-13T16:11:09.422Z,1001.3
2023-01-13T16:12:43.000Z,1001.3
2023-01-13T16:13:41.807Z,1001.4
2023-01-13T16:15:24.000Z,1001.4
2023-01-13T16:16:32.192Z,1001.3
2023-01-13T16:17:30.386Z,1001.4
2023-01-13T16:19:04.580Z,1001.4
2023-01-13T16:20:20.000Z,1001.4
2023-01-13T16:21:36.000Z,1001.5
2023-01-13T16:23:01.000Z,1001.6
2023-01-13T16:23:51.351Z,1001.5
2023-01-13T16:25:25.000Z,1001.6
2023-01-13T16:26:23.737Z,1001.4
2023-01-13T16:27:56.947Z,1001.6
2023-01-13T16:28:55.139Z,1001.4
2023-01-13T16:30:11.332Z,1001.7
2023-01-13T16:31:45.525Z,1001.5